Time;durP1;ratioP1;P1;durP2;ratioP2;P2;SDS_P1;SDS_P2;PMS_P1;PMS_P2;Temp;Humidity;BMP_temperature;BMP_pressure;BME280_temperature;BME280_humidity;BME280_pressure;Samples;Min_cycle;Max_cycle;Signal;HPM_P1;HPM_P2
2021/12/14 00:02:14;;;;;;;83.15;38.95;;;8.30;99.90;;;;;;6157309;23;20122;-85
2021/12/14 00:04:58;;;;;;;77.80;28.52;;;8.40;99.90;;;;;;6156965;23;20130;-85
2021/12/14 00:07:46;;;;;;;;;;;;;;;;;;;;;
2021/12/14 00:13:57;;;;;;;74.78;23.17;;;8.40;99.90;;;;;;6156740;23;20260;-85
2021/12/14 00:16:25;;;;;;;74.72;24.92;;;8.30;99.90;;;;;;6150691;23;20248;-85
2021/12/14 00:19:08;;;;;;;75.20;23.73;;;8.30;99.90;;;;;;6157132;23;20126;-85
2021/12/14 00:22:05;;;;;;;75.43;25.05;;;8.30;99.90;;;;;;6130958;23;20213;-85
2021/12/14 00:24:43;;;;;;;74.22;21.42;;;8.30;99.90;;;;;;6157466;23;20138;-85
2021/12/14 00:27:26;;;;;;;77.70;27.80;;;8.30;99.90;;;;;;6130820;23;20208;-85
2021/12/14 00:30:07;;;;;;;76.47;27.30;;;8.30;99.90;;;;;;6131504;23;20146;-85
2021/12/14 00:32:48;;;;;;;77.80;30.20;;;8.30;99.90;;;;;;6156946;23;20129;-85
2021/12/14 00:35:22;;;;;;;78.63;32.75;;;8.30;99.90;;;;;;6156643;22;20211;-85
2021/12/14 00:38:14;;;;;;;;;;;;;;;;;;;;;
2021/12/14 00:41:37;;;;;;;77.55;29.95;;;8.30;99.90;;;;;;6157237;23;20157;-85
2021/12/14 00:44:29;;;;;;;78.20;29.38;;;8.30;99.90;;;;;;6127159;23;20203;-85
2021/12/14 00:47:26;;;;;;;86.43;46.33;;;8.30;99.90;;;;;;6156772;22;20166;-85
2021/12/14 00:50:06;;;;;;;82.97;43.72;;;8.30;99.90;;;;;;6155777;22;20145;-85
2021/12/14 00:52:48;;;;;;;81.68;40.78;;;8.30;99.90;;;;;;6156980;23;20187;-85
2021/12/14 00:55:39;;;;;;;83.40;45.70;;;8.30;99.90;;;;;;6130859;23;20173;-85
2021/12/14 00:58:15;;;;;;;89.88;59.50;;;8.30;99.90;;;;;;6130826;23;20189;-85
2021/12/14 01:01:18;;;;;;;100.78;81.13;;;8.20;99.90;;;;;;6129625;23;20152;-85
2021/12/14 01:04:17;;;;;;;;;;;;;;;;;;;;;
2021/12/14 01:07:05;;;;;;;101.40;81.90;;;8.20;99.90;;;;;;6150771;23;20248;-85
2021/12/14 01:09:52;;;;;;;100.53;84.30;;;8.20;99.90;;;;;;6129880;23;20154;-85
2021/12/14 01:16:01;;;;;;;109.22;95.30;;;8.20;99.90;;;;;;6156853;23;20288;-85
2021/12/14 01:19:12;;;;;;;109.45;96.00;;;8.20;99.90;;;;;;6150287;23;20599;-85
2021/12/14 01:27:31;;;;;;;103.22;91.07;;;8.20;99.90;;;;;;6121674;23;20177;-85
2021/12/14 01:30:47;;;;;;;;;;;;;;;;;;;;;
2021/12/14 01:33:22;;;;;;;114.68;102.88;;;8.20;99.90;;;;;;6132726;23;20169;-85
2021/12/14 01:42:20;;;;;;;113.47;102.18;;;8.20;99.90;;;;;;6158489;23;20142;-85
2021/12/14 01:45:19;;;;;;;135.93;123.38;;;8.20;99.90;;;;;;6132085;23;20134;-85
2021/12/14 01:48:32;;;;;;;122.70;110.88;;;8.20;99.90;;;;;;6094486;23;20153;-85
2021/12/14 01:51:15;;;;;;;131.20;119.20;;;8.20;99.90;;;;;;6130790;23;20659;-85
2021/12/14 01:53:47;;;;;;;122.60;110.85;;;8.20;99.90;;;;;;6157225;22;20123;-85
2021/12/14 01:56:31;;;;;;;137.50;124.80;;;8.20;99.90;;;;;;6131360;23;20189;-85
2021/12/14 01:59:34;;;;;;;125.63;113.85;;;8.20;99.90;;;;;;6132034;23;20173;-85
2021/12/14 02:02:28;;;;;;;132.63;120.80;;;8.20;99.90;;;;;;6151097;23;20154;-85
2021/12/14 02:05:26;;;;;;;131.63;119.57;;;8.20;99.90;;;;;;6131866;23;20152;-86
2021/12/14 02:07:59;;;;;;;126.32;114.43;;;8.20;99.90;;;;;;6130474;23;20153;-86
2021/12/14 02:10:44;;;;;;;114.30;102.82;;;8.20;99.90;;;;;;6130761;23;20256;-84
2021/12/14 02:13:13;;;;;;;124.88;113.13;;;8.20;99.90;;;;;;6132144;23;20157;-85
2021/12/14 02:15:46;;;;;;;128.88;116.32;;;8.20;99.90;;;;;;6132961;23;20261;-85
2021/12/14 02:18:21;;;;;;;118.35;106.80;;;8.20;99.90;;;;;;6134552;23;20146;-85
2021/12/14 02:21:09;;;;;;;124.05;112.13;;;8.20;99.90;;;;;;6133416;23;20610;-85
2021/12/14 02:23:58;;;;;;;129.88;117.82;;;8.20;99.90;;;;;;6128329;23;20169;-85
2021/12/14 02:26:37;;;;;;;125.38;113.47;;;8.30;99.90;;;;;;6134964;23;20174;-85
2021/12/14 02:29:33;;;;;;;131.18;119.10;;;8.30;99.90;;;;;;6159597;23;20146;-85
2021/12/14 02:32:11;;;;;;;137.85;125.35;;;8.30;99.90;;;;;;6045500;23;20342;-85
2021/12/14 02:35:15;;;;;;;147.98;134.80;;;8.30;99.90;;;;;;6132872;23;20142;-84
2021/12/14 02:38:07;;;;;;;136.38;124.15;;;8.30;99.90;;;;;;6133999;23;20194;-85
2021/12/14 02:41:01;;;;;;;155.35;142.02;;;8.30;99.90;;;;;;6159835;23;20123;-85
2021/12/14 02:43:48;;;;;;;135.35;123.05;;;8.30;99.90;;;;;;6132746;23;20150;-85
2021/12/14 02:46:44;;;;;;;174.77;160.50;;;8.30;99.90;;;;;;6131330;23;20253;-85
2021/12/14 02:52:25;;;;;;;123.50;111.25;;;8.30;99.90;;;;;;6069153;23;20325;-85
2021/12/14 02:55:05;;;;;;;136.73;123.82;;;8.30;99.90;;;;;;6127504;23;20154;-85
2021/12/14 02:58:05;;;;;;;170.65;156.55;;;8.30;99.90;;;;;;6130339;23;20166;-85
2021/12/14 03:00:42;;;;;;;120.63;108.57;;;8.30;99.90;;;;;;6157522;23;20229;-85
2021/12/14 03:03:27;;;;;;;119.85;107.90;;;8.30;99.90;;;;;;6130088;23;20149;-85
2021/12/14 03:06:07;;;;;;;144.52;131.63;;;8.30;99.90;;;;;;6157890;22;20591;-85
2021/12/14 03:08:48;;;;;;;145.32;132.60;;;8.30;99.90;;;;;;6137009;23;20166;-85
2021/12/14 03:11:26;;;;;;;144.48;131.25;;;8.30;99.90;;;;;;6132230;23;20157;-85
2021/12/14 03:14:12;;;;;;;122.15;110.30;;;8.30;99.90;;;;;;6132902;23;20149;-84
2021/12/14 03:16:45;;;;;;;119.85;108.03;;;8.30;99.90;;;;;;6133299;23;20192;-85
2021/12/14 03:19:37;;;;;;;156.60;142.95;;;8.20;99.90;;;;;;6130920;23;20181;-85
2021/12/14 03:25:42;;;;;;;151.88;138.35;;;8.30;99.90;;;;;;6158561;23;20241;-83
2021/12/14 03:28:19;;;;;;;123.25;111.10;;;8.30;99.90;;;;;;6119644;23;20150;-85
2021/12/14 03:31:03;;;;;;;126.63;114.22;;;8.30;99.90;;;;;;6131964;23;20156;-85
2021/12/14 03:33:38;;;;;;;129.75;117.22;;;8.30;99.90;;;;;;6157322;23;20142;-85
2021/12/14 03:36:28;;;;;;;;;;;;;;;;;;;;;
2021/12/14 03:39:17;;;;;;;107.57;95.95;;;8.30;99.90;;;;;;6158133;23;20188;-85
2021/12/14 03:41:54;;;;;;;131.30;118.50;;;8.30;99.90;;;;;;6131649;23;20638;-85
2021/12/14 03:44:42;;;;;;;128.13;115.20;;;8.30;99.90;;;;;;6132445;23;20168;-85
2021/12/14 03:47:44;;;;;;;126.50;113.57;;;8.30;99.90;;;;;;6132183;23;20166;-85
2021/12/14 03:50:24;;;;;;;105.80;94.43;;;8.30;99.90;;;;;;6131839;23;20150;-85
2021/12/14 03:53:12;;;;;;;115.65;103.63;;;8.30;99.90;;;;;;6133781;23;20562;-83
2021/12/14 03:56:11;;;;;;;139.13;125.93;;;8.30;99.90;;;;;;6085203;23;20173;-85
2021/12/14 03:58:43;;;;;;;111.80;99.97;;;8.30;99.90;;;;;;6130349;23;20165;-85
2021/12/14 04:01:45;;;;;;;109.38;97.70;;;8.30;99.90;;;;;;6136690;23;20157;-85
2021/12/14 04:04:45;;;;;;;139.23;125.75;;;8.30;99.90;;;;;;6067096;23;20147;-85
2021/12/14 04:07:51;;;;;;;107.35;95.72;;;8.30;99.90;;;;;;6075687;23;20170;-85
2021/12/14 04:10:38;;;;;;;108.47;95.45;;;8.30;99.90;;;;;;6156671;23;20532;-85
2021/12/14 04:13:47;;;;;;;106.82;95.25;;;8.40;99.90;;;;;;6129171;23;20166;-85
2021/12/14 04:16:33;;;;;;;112.15;100.40;;;8.30;99.90;;;;;;6128070;23;20177;-85
2021/12/14 04:19:21;;;;;;;137.15;124.10;;;8.20;99.90;;;;;;6130416;23;20240;-85
2021/12/14 04:22:17;;;;;;;125.65;113.25;;;8.20;99.90;;;;;;6131206;23;20146;-85
2021/12/14 04:25:01;;;;;;;137.75;124.40;;;8.30;99.90;;;;;;6131826;23;20143;-85
2021/12/14 04:27:58;;;;;;;136.23;123.35;;;8.30;99.90;;;;;;6130913;23;20217;-85
2021/12/14 04:30:32;;;;;;;110.18;98.38;;;8.30;99.90;;;;;;6125806;23;20150;-85
2021/12/14 04:33:08;;;;;;;123.32;110.65;;;8.30;99.90;;;;;;6131111;23;20146;-85
2021/12/14 04:35:52;;;;;;;;;;;;;;;;;;;;;
2021/12/14 04:38:35;;;;;;;138.02;124.78;;;8.30;99.90;;;;;;6156696;23;20153;-85
2021/12/14 05:03:00;;;;;;;161.82;147.88;;;8.20;99.90;;;;;;6182136;23;20191;-87
2021/12/14 05:13:31;;;;;;;132.25;119.72;;;8.20;99.90;;;;;;6096252;23;20154;-86
2021/12/14 05:24:23;;;;;;;;;;;;;;;;;;;;;
2021/12/14 05:59:58;;;;;;;106.60;90.93;;;8.40;99.90;;;;;;6149437;23;20215;-86
2021/12/14 06:03:01;;;;;;;110.57;95.57;;;8.30;99.90;;;;;;6053906;23;20152;-86
2021/12/14 06:27:01;;;;;;;;;;;;;;;;;;;;;
2021/12/14 06:40:14;;;;;;;103.88;86.97;;;8.20;99.90;;;;;;6148837;23;20201;-86
2021/12/14 06:43:39;;;;;;;119.50;106.88;;;8.20;99.90;;;;;;6039187;23;20148;-86
2021/12/14 06:46:47;;;;;;;;;;;;;;;;;;;;;
2021/12/14 06:49:41;;;;;;;107.78;91.10;;;8.10;99.90;;;;;;6034580;23;20236;-86
2021/12/14 06:56:37;;;;;;;111.43;97.50;;;8.10;99.90;;;;;;5948907;24;20270;-86
2021/12/14 06:59:20;;;;;;;102.85;83.68;;;8.10;99.90;;;;;;6117783;23;20147;-86
2021/12/14 07:02:11;;;;;;;105.53;78.55;;;8.20;99.90;;;;;;6171416;23;20153;-86
2021/12/14 07:05:21;;;;;;;107.82;89.68;;;8.20;99.90;;;;;;6114269;23;20604;-86
2021/12/14 07:08:14;;;;;;;114.43;97.90;;;8.10;99.90;;;;;;6033959;23;20192;-86
2021/12/14 07:11:45;;;;;;;106.13;89.10;;;8.10;99.90;;;;;;6096222;23;20161;-87
2021/12/14 07:15:27;;;;;;;118.25;104.60;;;8.20;99.90;;;;;;6011028;23;20506;-86
2021/12/14 07:18:42;;;;;;;;;;;;;;;;;;;;;
2021/12/14 07:22:01;;;;;;;;;;;;;;;;;;;;;
2021/12/14 07:32:39;;;;;;;109.22;88.40;;;8.10;99.90;;;;;;6009338;23;20211;-86
2021/12/14 07:43:18;;;;;;;116.80;94.75;;;8.10;99.90;;;;;;6179862;23;20172;-86
2021/12/14 07:46:51;;;;;;;114.38;101.32;;;8.10;99.90;;;;;;6181626;22;20548;-86
2021/12/14 07:56:28;;;;;;;101.00;77.22;;;8.10;99.90;;;;;;6195041;23;20413;-86
2021/12/14 07:59:59;;;;;;;;;;;;;;;;;;;;;
2021/12/14 08:02:38;;;;;;;103.55;81.78;;;8.10;99.90;;;;;;6144748;23;20530;-86
2021/12/14 08:08:56;;;;;;;104.95;83.28;;;8.10;99.90;;;;;;6151737;23;20650;-86
2021/12/14 08:28:06;;;;;;;97.18;71.20;;;8.10;99.90;;;;;;6149990;23;20202;-86
2021/12/14 08:41:50;;;;;;;100.63;71.68;;;8.10;99.90;;;;;;6183138;23;20151;-86
2021/12/14 08:44:55;;;;;;;97.82;69.18;;;8.10;99.90;;;;;;6115644;23;20141;-86
2021/12/14 08:51:36;;;;;;;92.43;60.88;;;8.20;99.90;;;;;;6063356;23;20154;-86
2021/12/14 08:55:08;;;;;;;;;;;;;;;;;;;;;
2021/12/14 09:01:48;;;;;;;94.47;60.30;;;8.20;99.90;;;;;;5943102;23;20160;-86
2021/12/14 09:11:43;;;;;;;93.78;55.88;;;8.30;99.90;;;;;;5949129;24;20226;-86
2021/12/14 09:14:52;;;;;;;;;;;;;;;;;;;;;
2021/12/14 09:18:16;;;;;;;92.15;56.53;;;8.40;99.90;;;;;;6086107;23;20680;-86
2021/12/14 09:21:39;;;;;;;97.70;63.92;;;8.40;99.90;;;;;;6065111;23;20226;-86
2021/12/14 09:25:05;;;;;;;99.20;57.70;;;8.40;99.90;;;;;;6044449;23;20179;-86
2021/12/14 09:32:37;;;;;;;96.22;71.25;;;8.50;99.90;;;;;;6066313;23;20146;-86
2021/12/14 09:38:09;;;;;;;93.70;65.95;;;8.50;99.90;;;;;;5990820;23;20177;-86
2021/12/14 09:40:50;;;;;;;101.07;86.70;;;8.50;99.90;;;;;;6100048;23;20469;-86
2021/12/14 09:43:20;;;;;;;115.93;104.15;;;8.60;99.90;;;;;;6114994;23;20148;-86
2021/12/14 09:45:51;;;;;;;143.55;130.77;;;8.60;99.90;;;;;;6157403;23;20162;-86
2021/12/14 09:48:56;;;;;;;155.63;142.65;;;8.60;99.90;;;;;;6127083;23;20138;-86
2021/12/14 09:58:59;;;;;;;130.98;118.75;;;8.60;99.90;;;;;;6031551;23;20161;-86
2021/12/14 10:24:35;;;;;;;;;;;;;;;;;;;;;
2021/12/14 10:31:47;;;;;;;;;;;;;;;;;;;;;
2021/12/14 10:45:02;;;;;;;83.18;36.17;;;8.80;99.90;;;;;;6062598;23;20536;-85
2021/12/14 10:55:08;;;;;;;81.47;28.23;;;8.90;99.90;;;;;;6069567;23;20650;-84
2021/12/14 10:57:42;;;;;;;84.40;24.85;;;8.90;99.90;;;;;;6057026;23;20204;-84
2021/12/14 11:01:23;;;;;;;;;;;;;;;;;;;;;
2021/12/14 11:03:57;;;;;;;78.10;23.40;;;8.90;99.90;;;;;;6100891;23;20226;-84
2021/12/14 11:06:45;;;;;;;79.55;21.45;;;9.00;99.90;;;;;;6050966;23;20169;-86
2021/12/14 11:09:49;;;;;;;81.63;22.52;;;9.10;99.90;;;;;;6063694;23;20141;-84
2021/12/14 11:12:34;;;;;;;77.68;26.42;;;9.10;99.90;;;;;;6062407;23;20483;-84
2021/12/14 11:18:26;;;;;;;78.78;21.05;;;9.10;99.90;;;;;;6041232;23;20243;-84
2021/12/14 11:21:30;;;;;;;78.85;22.45;;;9.10;99.90;;;;;;6041303;23;20140;-84
2021/12/14 11:46:21;;;;;;;79.97;23.25;;;9.20;99.90;;;;;;5897102;24;20211;-84
2021/12/14 11:53:15;;;;;;;;;;;;;;;;;;;;;
2021/12/14 12:05:47;;;;;;;82.93;40.35;;;9.30;99.90;;;;;;6094233;23;20683;-86
2021/12/14 12:11:33;;;;;;;87.40;43.90;;;9.30;99.90;;;;;;6067154;23;20187;-87
2021/12/14 12:14:36;;;;;;;87.60;44.60;;;9.30;99.90;;;;;;6043331;23;20148;-85
2021/12/14 12:20:54;;;;;;;86.65;33.70;;;9.20;99.90;;;;;;5985287;23;20178;-85
2021/12/14 12:23:27;;;;;;;85.60;38.92;;;9.10;99.90;;;;;;5986110;23;20174;-85
2021/12/14 12:26:07;;;;;;;84.88;35.97;;;9.10;99.90;;;;;;6042903;23;20495;-85
2021/12/14 12:29:43;;;;;;;82.18;34.63;;;9.20;99.90;;;;;;6044576;23;20155;-85
2021/12/14 12:33:00;;;;;;;;;;;;;;;;;;;;;
2021/12/14 12:36:16;;;;;;;;;;;;;;;;;;;;;
2021/12/14 12:39:12;;;;;;;88.25;38.85;;;9.40;99.90;;;;;;6047116;23;20172;-85
2021/12/14 12:42:23;;;;;;;85.78;37.00;;;9.40;99.90;;;;;;6043542;23;20155;-85
2021/12/14 12:46:05;;;;;;;86.65;39.55;;;9.40;99.90;;;;;;6028235;23;20148;-86
2021/12/14 12:49:03;;;;;;;90.90;46.78;;;9.40;99.90;;;;;;6079065;23;20624;-85
2021/12/14 12:58:12;;;;;;;96.88;68.82;;;9.50;99.90;;;;;;6153553;23;20248;-85
2021/12/14 13:05:14;;;;;;;;;;;;;;;;;;;;;
2021/12/14 13:08:24;;;;;;;;;;;;;;;;;;;;;
2021/12/14 13:15:22;;;;;;;91.25;54.60;;;9.50;99.90;;;;;;6008747;23;20195;-86
2021/12/14 13:18:39;;;;;;;;;;;;;;;;;;;;;
2021/12/14 13:21:32;;;;;;;94.05;53.97;;;9.50;99.90;;;;;;6156446;23;20240;-85
2021/12/14 13:24:31;;;;;;;;;;;;;;;;;;;;;
2021/12/14 13:27:21;;;;;;;95.60;58.78;;;9.50;99.90;;;;;;6156072;23;20254;-85
2021/12/14 13:29:56;;;;;;;94.10;60.08;;;9.50;99.90;;;;;;6156028;23;20149;-85
2021/12/14 13:32:50;;;;;;;94.22;60.00;;;9.50;99.90;;;;;;6129102;23;20149;-85
2021/12/14 13:35:31;;;;;;;94.55;71.28;;;9.50;99.90;;;;;;6128029;23;20150;-85
2021/12/14 13:38:10;;;;;;;91.63;56.08;;;9.50;99.90;;;;;;6156069;22;20176;-85
2021/12/14 13:40:43;;;;;;;96.75;63.72;;;9.50;99.90;;;;;;6132290;23;20487;-86
2021/12/14 13:43:11;;;;;;;96.80;68.40;;;9.50;99.90;;;;;;6156066;23;20188;-85
2021/12/14 13:46:05;;;;;;;94.60;59.67;;;9.50;99.90;;;;;;6130295;23;20150;-85
2021/12/14 13:49:02;;;;;;;89.38;50.60;;;9.50;99.90;;;;;;6130299;23;20150;-85
2021/12/14 13:51:51;;;;;;;92.32;54.17;;;9.50;99.90;;;;;;6129910;23;20491;-85
2021/12/14 13:55:05;;;;;;;91.18;55.97;;;9.50;99.90;;;;;;6128709;23;20605;-85
2021/12/14 13:58:03;;;;;;;93.65;49.45;;;9.50;99.90;;;;;;6101856;23;20173;-85
2021/12/14 14:00:51;;;;;;;86.57;39.38;;;9.50;99.90;;;;;;6129050;23;20146;-85
2021/12/14 14:04:04;;;;;;;86.18;39.63;;;9.50;99.90;;;;;;6129136;23;20571;-85
2021/12/14 14:07:05;;;;;;;89.03;37.92;;;9.50;99.90;;;;;;6100434;23;20595;-85
2021/12/14 14:12:54;;;;;;;87.43;37.45;;;9.40;99.90;;;;;;6107310;23;20260;-85
2021/12/14 14:15:47;;;;;;;83.50;34.83;;;9.40;99.90;;;;;;6131103;23;20157;-85
2021/12/14 14:18:33;;;;;;;83.97;36.60;;;9.40;99.90;;;;;;6157556;23;20223;-85
2021/12/14 14:21:14;;;;;;;83.95;35.08;;;9.40;99.90;;;;;;6131911;23;20231;-85
2021/12/14 14:30:08;;;;;;;81.65;28.13;;;9.40;99.90;;;;;;6186379;23;20192;-85
2021/12/14 14:43:17;;;;;;;85.90;30.40;;;9.30;99.90;;;;;;6159413;23;20161;-85
2021/12/14 14:50:28;;;;;;;81.10;26.50;;;9.30;99.90;;;;;;6172779;22;20180;-85
2021/12/14 14:53:40;;;;;;;88.20;42.25;;;9.30;99.90;;;;;;6212965;22;20146;-85
2021/12/14 14:56:13;;;;;;;88.88;44.70;;;9.30;99.90;;;;;;6157657;22;20276;-85
2021/12/14 14:59:37;;;;;;;100.20;56.90;;;9.20;99.90;;;;;;6260525;22;20448;-85
2021/12/14 15:02:14;;;;;;;87.65;40.13;;;9.20;99.90;;;;;;6157894;22;20219;-85
2021/12/14 15:05:18;;;;;;;89.43;42.45;;;9.20;99.90;;;;;;6259288;22;20145;-85
2021/12/14 15:08:31;;;;;;;90.25;34.08;;;9.20;99.90;;;;;;6259510;22;20166;-85
2021/12/14 15:11:46;;;;;;;88.60;44.13;;;9.20;99.90;;;;;;6164598;23;20749;-85
2021/12/14 15:15:08;;;;;;;;;;;;;;;;;;;;;
2021/12/14 15:17:48;;;;;;;115.50;96.22;;;9.10;99.90;;;;;;6100434;23;20199;-85
2021/12/14 15:20:50;;;;;;;103.88;78.85;;;9.10;99.90;;;;;;6076764;23;20148;-85
2021/12/14 15:23:56;;;;;;;104.47;72.47;;;9.10;99.90;;;;;;6103378;23;20480;-85
2021/12/14 15:26:43;;;;;;;120.13;106.70;;;9.10;99.90;;;;;;6135727;23;20187;-85
2021/12/14 15:29:45;;;;;;;117.10;100.57;;;9.10;99.90;;;;;;6219309;23;20129;-85
2021/12/14 15:32:50;;;;;;;110.85;90.10;;;9.10;99.90;;;;;;6220493;22;20180;-85
2021/12/14 15:36:08;;;;;;;120.82;108.28;;;9.10;99.90;;;;;;6260501;22;20244;-85
2021/12/14 15:39:07;;;;;;;110.57;95.68;;;9.10;99.90;;;;;;6100516;23;20247;-85
2021/12/14 15:41:52;;;;;;;119.80;98.20;;;9.10;99.90;;;;;;6099456;23;20167;-85
2021/12/14 15:44:42;;;;;;;118.05;102.57;;;9.10;99.90;;;;;;6164325;23;20214;-85
2021/12/14 15:47:14;;;;;;;126.38;113.07;;;9.10;99.90;;;;;;6163101;23;20177;-85
2021/12/14 15:50:14;;;;;;;132.45;119.30;;;9.00;99.90;;;;;;6219017;22;20146;-85
2021/12/14 15:52:56;;;;;;;;;;;;;;;;;;;;;
2021/12/14 15:56:19;;;;;;;139.38;125.68;;;9.00;99.90;;;;;;6158622;22;20595;-85
2021/12/14 15:59:05;;;;;;;134.13;121.10;;;9.00;99.90;;;;;;6189739;22;20146;-85
2021/12/14 16:01:41;;;;;;;147.38;134.35;;;9.00;99.90;;;;;;6258698;22;20134;-85
2021/12/14 16:07:30;;;;;;;160.82;146.73;;;8.90;99.90;;;;;;6069548;23;20167;-85
2021/12/14 16:10:21;;;;;;;138.60;125.50;;;8.90;99.90;;;;;;6154049;23;20178;-85
2021/12/14 16:15:37;;;;;;;140.30;127.47;;;8.90;99.90;;;;;;6155998;23;20165;-85
2021/12/14 16:18:11;;;;;;;151.40;137.77;;;8.90;99.90;;;;;;6156069;22;20150;-84
2021/12/14 16:21:00;;;;;;;161.32;147.18;;;8.90;99.90;;;;;;6156120;22;20129;-85
2021/12/14 16:23:32;;;;;;;129.07;116.60;;;8.90;99.90;;;;;;6258031;22;20150;-85
2021/12/14 16:26:32;;;;;;;137.38;124.35;;;8.90;99.90;;;;;;6258359;22;20248;-85
2021/12/14 16:29:10;;;;;;;131.98;119.18;;;8.80;99.90;;;;;;6183477;22;20150;-85
2021/12/14 16:31:41;;;;;;;130.15;117.35;;;8.80;99.90;;;;;;6154084;22;20134;-84
2021/12/14 16:34:23;;;;;;;129.55;116.95;;;8.80;99.90;;;;;;6154017;22;20126;-84
2021/12/14 16:37:00;;;;;;;128.20;115.63;;;8.80;99.90;;;;;;6155971;22;20177;-85
2021/12/14 16:39:38;;;;;;;156.02;141.95;;;8.80;99.90;;;;;;6155492;23;20153;-85
2021/12/14 16:42:09;;;;;;;127.88;115.40;;;8.90;99.90;;;;;;6156252;22;20206;-85
2021/12/14 16:44:43;;;;;;;152.15;138.63;;;8.80;99.90;;;;;;6156670;23;20556;-85
2021/12/14 16:47:19;;;;;;;160.07;146.13;;;8.90;99.90;;;;;;6155970;22;20536;-85
2021/12/14 16:50:02;;;;;;;145.27;132.10;;;8.90;99.90;;;;;;6156265;23;20523;-85
2021/12/14 17:03:51;;;;;;;163.00;148.48;;;8.80;99.90;;;;;;6148674;23;20242;-91
2021/12/14 17:06:52;;;;;;;143.18;130.02;;;8.90;99.90;;;;;;6103063;23;20246;-91
2021/12/14 17:09:51;;;;;;;152.02;138.07;;;8.90;99.90;;;;;;6126579;23;20219;-91
2021/12/14 17:12:24;;;;;;;147.15;134.13;;;8.90;99.90;;;;;;6078237;23;20161;-91
2021/12/14 17:15:25;;;;;;;151.25;137.95;;;8.90;99.90;;;;;;6126463;23;20579;-91
2021/12/14 17:18:18;;;;;;;148.35;135.05;;;8.90;99.90;;;;;;6125580;23;20165;-91
2021/12/14 17:25:15;;;;;;;153.02;139.57;;;8.90;99.90;;;;;;6151899;23;20203;-91
2021/12/14 17:31:05;;;;;;;125.53;113.25;;;8.90;99.90;;;;;;6153232;23;20134;-91
2021/12/14 17:34:26;;;;;;;;;;;;;;;;;;;;;
2021/12/14 17:37:24;;;;;;;143.15;130.05;;;8.80;99.90;;;;;;6151322;23;20264;-91
2021/12/14 17:40:20;;;;;;;139.38;126.78;;;8.80;99.90;;;;;;6150323;23;20251;-91
2021/12/14 17:43:05;;;;;;;145.60;132.60;;;8.80;99.90;;;;;;6126356;23;20170;-91
2021/12/14 17:49:39;;;;;;;135.23;122.55;;;8.80;99.90;;;;;;6152803;23;20149;-91
2021/12/14 17:56:03;;;;;;;123.35;111.10;;;8.80;99.90;;;;;;6188333;23;20177;-91
2021/12/14 17:59:13;;;;;;;104.35;91.07;;;8.80;99.90;;;;;;6126891;23;20141;-91
2021/12/14 18:02:01;;;;;;;120.00;107.90;;;8.80;99.90;;;;;;6152669;23;20134;-91
2021/12/14 18:05:11;;;;;;;;;;;;;;;;;;;;;
2021/12/14 18:08:26;;;;;;;112.20;100.28;;;8.80;99.90;;;;;;6152675;23;20285;-91
2021/12/14 18:11:37;;;;;;;132.13;117.55;;;8.80;99.90;;;;;;6124924;23;20204;-91
2021/12/14 18:14:25;;;;;;;120.07;107.43;;;8.90;99.90;;;;;;6038855;23;20148;-91
2021/12/14 18:17:05;;;;;;;109.95;98.10;;;8.90;99.90;;;;;;6115159;23;20190;-91
2021/12/14 18:19:40;;;;;;;110.47;92.97;;;8.80;99.90;;;;;;6093237;23;20644;-90
2021/12/14 18:22:13;;;;;;;110.95;99.15;;;8.80;99.90;;;;;;6093833;23;20154;-90
2021/12/14 18:25:19;;;;;;;;;;;;;;;;;;;;;
2021/12/14 18:32:40;;;;;;;;;;;;;;;;;;;;;
2021/12/14 18:35:22;;;;;;;;;;;;;;;;;;;;;
2021/12/14 18:38:25;;;;;;;;;;;;;;;;;;;;;
2021/12/14 18:41:05;;;;;;;99.50;77.18;;;8.80;99.90;;;;;;6033485;23;20187;-91
2021/12/14 18:43:56;;;;;;;104.32;79.38;;;8.80;99.90;;;;;;6097689;23;20157;-91
2021/12/14 18:47:03;;;;;;;123.85;111.35;;;8.80;99.90;;;;;;6097616;23;20619;-91
2021/12/14 18:49:44;;;;;;;123.53;111.25;;;8.80;99.90;;;;;;6086867;23;20147;-91
2021/12/14 18:52:34;;;;;;;120.00;107.07;;;8.90;99.90;;;;;;6098502;23;20151;-90
2021/12/14 18:55:27;;;;;;;;;;;;;;;;;;;;;
2021/12/14 18:58:14;;;;;;;111.05;94.85;;;8.80;99.90;;;;;;6123060;23;20250;-91
2021/12/14 19:00:54;;;;;;;103.68;90.30;;;8.90;99.90;;;;;;6096840;23;20155;-91
2021/12/14 19:03:29;;;;;;;111.13;99.28;;;8.90;99.90;;;;;;6097565;23;20471;-91
2021/12/14 19:06:09;;;;;;;109.95;98.32;;;8.90;99.90;;;;;;6096703;23;20176;-91
2021/12/14 19:08:50;;;;;;;129.15;116.47;;;8.90;99.90;;;;;;6123350;23;20161;-91
2021/12/14 19:11:47;;;;;;;;;;;;;;;;;;;;;
2021/12/14 19:14:25;;;;;;;119.72;107.38;;;8.90;99.90;;;;;;6121494;23;20222;-91
2021/12/14 19:17:16;;;;;;;156.30;142.45;;;8.90;99.90;;;;;;6122864;23;20513;-91
2021/12/14 19:20:13;;;;;;;137.68;125.05;;;8.90;99.90;;;;;;6096849;23;20174;-91
2021/12/14 19:22:49;;;;;;;139.23;126.43;;;8.90;99.90;;;;;;6121507;23;20164;-91
2021/12/14 19:28:49;;;;;;;130.75;118.20;;;8.90;99.90;;;;;;6122511;23;20200;-91
2021/12/14 19:32:05;;;;;;;;;;;;;;;;;;;;;
2021/12/14 19:35:08;;;;;;;154.18;140.82;;;8.90;99.90;;;;;;6061961;23;20669;-91
2021/12/14 19:53:53;;;;;;;108.22;88.15;;;8.80;99.90;;;;;;6094248;23;20179;-91
2021/12/14 19:56:23;;;;;;;104.07;83.82;;;8.80;99.90;;;;;;6067105;23;20191;-92
2021/12/14 19:59:09;;;;;;;;;;;;;;;;;;;;;
2021/12/14 20:02:26;;;;;;;106.60;94.93;;;8.80;99.90;;;;;;5976169;23;20225;-91
2021/12/14 20:05:35;;;;;;;108.75;97.15;;;8.80;99.90;;;;;;5948916;24;20151;-91
2021/12/14 20:08:44;;;;;;;;;;;;;;;;;;;;;
2021/12/14 20:11:58;;;;;;;102.22;81.35;;;8.80;99.90;;;;;;6037777;23;20701;-92
2021/12/14 20:15:24;;;;;;;;;;;;;;;;;;;;;
2021/12/14 20:52:00;;;;;;;;;;;;;;;;;;;;;
2021/12/14 20:55:19;;;;;;;;;;;;;;;;;;;;;
2021/12/14 21:00:53;;;;;;;119.90;107.90;;;8.90;99.90;;;;;;6179950;23;20178;-90
2021/12/14 21:03:58;;;;;;;137.50;124.78;;;8.90;99.90;;;;;;6183806;22;20149;-90
2021/12/14 21:06:51;;;;;;;152.10;138.90;;;8.90;99.90;;;;;;6298295;22;20194;-89
2021/12/14 21:09:34;;;;;;;151.02;137.45;;;8.90;99.90;;;;;;6152203;22;20134;-90
2021/12/14 21:12:31;;;;;;;115.07;102.10;;;8.90;99.90;;;;;;6254423;22;20145;-90
2021/12/14 21:19:14;;;;;;;;;;;;;;;;;;;;;
2021/12/14 21:22:20;;;;;;;100.03;81.28;;;8.80;99.90;;;;;;6151349;23;20535;-92
2021/12/14 21:25:12;;;;;;;103.45;87.78;;;8.80;99.90;;;;;;6183083;23;20149;-92
2021/12/14 21:28:05;;;;;;;104.72;90.10;;;8.80;99.90;;;;;;6281193;22;20170;-92
2021/12/14 21:31:35;;;;;;;102.13;81.18;;;8.80;99.90;;;;;;6254096;22;20157;-92
2021/12/14 21:34:04;;;;;;;101.10;82.95;;;8.80;99.90;;;;;;6152421;22;20154;-92
2021/12/14 21:36:49;;;;;;;98.72;71.95;;;8.80;99.90;;;;;;6151307;22;20178;-92
2021/12/14 21:40:05;;;;;;;104.90;80.95;;;8.80;99.90;;;;;;6255087;22;20146;-92
2021/12/14 21:42:52;;;;;;;98.40;69.25;;;8.80;99.90;;;;;;6254416;22;20150;-91
2021/12/14 21:45:40;;;;;;;98.13;72.45;;;8.80;99.90;;;;;;6254090;22;20138;-91
2021/12/14 21:48:06;;;;;;;105.43;73.90;;;8.70;99.90;;;;;;6150545;22;20660;-91
2021/12/14 21:50:37;;;;;;;97.40;69.80;;;8.80;99.90;;;;;;6254037;22;20154;-91
2021/12/14 21:53:08;;;;;;;100.10;79.82;;;8.80;99.90;;;;;;6151833;22;20668;-91
2021/12/14 21:55:46;;;;;;;109.10;96.57;;;8.70;99.90;;;;;;6151353;23;20209;-91
2021/12/14 21:58:18;;;;;;;99.55;73.93;;;8.60;99.90;;;;;;6254720;22;20138;-91
2021/12/14 22:00:55;;;;;;;97.63;71.85;;;8.70;99.90;;;;;;6151589;22;20153;-91
2021/12/14 22:03:21;;;;;;;95.22;66.97;;;8.70;99.90;;;;;;6255306;22;20188;-91
2021/12/14 22:05:47;;;;;;;97.00;73.67;;;8.80;99.90;;;;;;6254406;22;20174;-91
2021/12/14 22:08:18;;;;;;;96.20;68.30;;;8.80;99.90;;;;;;6254642;22;20248;-88
2021/12/14 22:10:50;;;;;;;95.85;71.45;;;8.80;99.90;;;;;;6151630;22;20204;-90
2021/12/14 22:13:17;;;;;;;95.90;69.82;;;8.80;99.90;;;;;;6254387;22;20149;-91
2021/12/14 22:15:57;;;;;;;103.57;78.10;;;8.70;99.90;;;;;;6151053;22;20174;-91
2021/12/14 22:18:29;;;;;;;98.50;74.25;;;8.70;99.90;;;;;;6254672;22;20466;-88
2021/12/14 22:20:58;;;;;;;103.47;73.93;;;8.60;99.90;;;;;;6254799;22;20224;-88
2021/12/14 22:23:30;;;;;;;97.53;62.35;;;8.70;99.90;;;;;;6254101;22;20155;-88
2021/12/14 22:25:59;;;;;;;95.10;62.05;;;8.70;99.90;;;;;;6254302;22;20189;-89
2021/12/14 22:28:25;;;;;;;97.90;67.13;;;8.70;99.90;;;;;;6151700;23;20166;-88
2021/12/14 22:30:52;;;;;;;95.25;65.32;;;8.70;99.90;;;;;;6151014;22;20146;-88
2021/12/14 22:33:37;;;;;;;97.03;65.03;;;8.70;99.90;;;;;;6152705;22;20146;-88
2021/12/14 22:36:03;;;;;;;100.93;64.35;;;8.70;99.90;;;;;;6152429;22;20177;-89
2021/12/14 22:38:29;;;;;;;97.90;73.07;;;8.70;99.90;;;;;;6255695;22;20655;-89
2021/12/14 22:41:25;;;;;;;95.73;64.93;;;8.70;99.90;;;;;;6152637;23;20146;-89